Aérodrome :
LOGIN :

S'inscrire | Disclaimer

   EN    FR    IT 

 










Légende :    VFR   VFR Marginal   IFR   IFR Intensif   IFR Très Intensif
Visi : 
Plafond : 
>= 8 km
>= 3000ft
5 à 8 km
1000 à 3000 ft
1500m à 5 km
500 à 1000 ft
800 à 1500m
200 à 500 ft
< 800m
< 200 ft
Symboles :   Orages  Brouillard  Fortes neiges  Fortes précipitations  Vent > 20 kt
SIGMETs :   Divers  Orages  Givrage  Turbulence  Onde Orograph.  Cendres Volcan.







- Altitude de l'aérodrome : 614 ft
- Code IATA : CRL


EBCI - Charleroi

DERNIER METAR :
  • 261820Z 11009KT 080V140 CAVOK 26/07 Q1016 NOSIG

METARs EXPIRÉS :
  • 261750Z 10011KT 070V140 CAVOK 27/08 Q1017 NOSIG
  • 261720Z 10010KT CAVOK 27/07 Q1017 NOSIG
  • 261650Z 12010KT 080V150 CAVOK 27/07 Q1017 NOSIG
  • 261620Z 10010KT 050V130 CAVOK 28/06 Q1017 NOSIG
  • 261550Z 13009KT 100V160 CAVOK 27/06 Q1017 NOSIG

TAF TAF EBCI
Valide du 26 à 18h jusqu'au 28 à 00h UTC


261700Z 2618/2724 10010KT CAVOK
BECMG 2708/2710 16008KT
PROB30
TEMPO 2716/2721 SHRA TSRA
Pas de NOTAMs connus pour ce terrain.



MET'MAP, la Météo Aéronautique d'un coup d'oeil ! - Copyright ORBIFLY Décembre 2007 - Disclaimer

ORBIFLY MET'MAP TEAM :

Programmation & Développement : Alexandra Zaïnal
Conception & Développement : Baudouin d'Aumeries
Co-Programmation & Développement : Marc-Olivier Méhu
Soutien technique & logistique : Manuel Goepfert

Contact : metmap@orbifly.com




SOURCES & CREDITS :

   NOAA